Weather at Clinton Hospital Heliport

Public forecast

Using degrees Fahrenheit for public forecast. Weather courtesy of forecast.io.

Closest aviation weather report (METAR) to Clinton Hospital Heliport

Report is more than 6 hours old.

Closest report is Fitchburg Municipal Airport, 8.1 nm (15.0 km) NNW.

2022/11/14 14:52 (retrieved 2 years ago)

KFIT 141452Z AUTO 31018G23KT 9SM -SN CLR 03/M08 A3023 RMK AO2 SNB30 SLP241 P0000 60000 T00331083 51028

Closest aviation forecast (TAF) to Clinton Hospital Heliport

Forecast is more than 12 hours old.

Closest forecast is Worcester Regional Airport, 12.6 nm (23.3 km) SW.

2023/02/22 18:40 (retrieved 1 year ago)

TAF KORH 221738Z 2218/2318 27009KT P6SM OVC120 FM222300 22003KT 4SM -SN OVC020 FM230000 00000KT 4SM -SN BR OVC015 FM230400 14004KT 1SM -PL BR OVC008 FM230800 08007KT 1SM -PL BR OVC003 FM231700 05010G17KT 3SM BR VCSH OVC008